Port Mellon, Canada
Current Conditions -  °F | °C
As of 6:00 AM on Thursday 30 Oct 2014 (Local Time) from CYVR Reporting Station
Broken Clouds Broken Clouds  
Wind Chill: 54°   Ceiling: 5600
Heat Index: 54°   Visibility: 15mi
Dew Point: 48°   Wind: 6mph
Humidity: 82%   Direction: 70°ENE
Pressure: 29.89"   Gusts: NA
Location:  49.52°N, 123.48°W
Report Text: CYVR 301300Z 07005KT 15SM BKN056 BKN098 12/09 A2989 RMK SC6AC1 SLP122
Loading
Personal Weather Stations






























Interactive Weather Map
Tropical Storm Tracking
New forecast layout! Learn more

10-Day Weather Forecast

Advertisements
Track Severe Weather on mobile